createdAt,value
2023-04-15T00:08:30.814Z,10.20
2023-04-15T00:18:30.154Z,10.30
2023-04-15T00:28:29.270Z,10.40
2023-04-15T00:38:28.350Z,10.40
2023-04-15T00:48:27.728Z,10.30
2023-04-15T00:58:27.563Z,10.40
2023-04-15T01:08:27.348Z,10.40
2023-04-15T01:18:26.822Z,10.40
2023-04-15T01:28:25.618Z,10.30
2023-04-15T01:38:24.816Z,10.10
2023-04-15T01:48:23.858Z,10.10
2023-04-15T01:58:22.894Z,10.00
2023-04-15T02:08:22.037Z,10.00
2023-04-15T02:18:21.294Z,9.90
2023-04-15T02:28:20.963Z,9.80
2023-04-15T02:38:21.543Z,9.50
2023-04-15T02:48:21.727Z,9.20
2023-04-15T02:58:21.165Z,9.00
2023-04-15T03:08:20.368Z,8.80
2023-04-15T03:18:20.088Z,8.50
2023-04-15T03:28:18.930Z,8.30
2023-04-15T03:38:17.877Z,8.10
2023-04-15T03:48:18.263Z,8.10
2023-04-15T03:58:18.353Z,7.90
2023-04-15T04:08:19.159Z,7.80
2023-04-15T04:18:18.035Z,7.70
2023-04-15T04:28:17.121Z,7.60
2023-04-15T04:38:15.902Z,7.40
2023-04-15T04:48:14.782Z,7.30
2023-04-15T04:58:13.803Z,7.20
2023-04-15T05:08:13.383Z,7.20
2023-04-15T05:18:12.852Z,7.20
2023-04-15T05:28:12.197Z,7.10
2023-04-15T05:38:11.411Z,7.20
2023-04-15T05:48:10.810Z,7.40
2023-04-15T05:58:10.034Z,7.80
2023-04-15T06:08:09.187Z,8.60
2023-04-15T06:18:07.871Z,9.50
2023-04-15T06:28:07.055Z,10.30
2023-04-15T06:38:05.973Z,11.10
2023-04-15T06:48:04.874Z,11.90
2023-04-15T06:58:03.850Z,12.90
2023-04-15T07:08:03.264Z,13.20
2023-04-15T07:18:01.851Z,13.20
2023-04-15T07:28:02.183Z,12.90
2023-04-15T07:38:01.210Z,13.10
2023-04-15T07:47:59.807Z,13.50
2023-04-15T07:57:58.806Z,13.80
2023-04-15T08:07:58.346Z,13.90
2023-04-15T08:17:56.845Z,14.30
2023-04-15T08:27:55.820Z,14.80
2023-04-15T08:37:55.056Z,14.90
2023-04-15T08:47:53.878Z,14.90
2023-04-15T08:57:53.112Z,15.10
2023-04-15T09:07:51.965Z,15.40
2023-04-15T09:17:51.151Z,15.60
2023-04-15T09:27:50.016Z,15.70
2023-04-15T09:37:49.070Z,15.80
2023-04-15T09:47:47.959Z,15.70
2023-04-15T09:57:47.283Z,16.50
2023-04-15T10:07:46.253Z,16.30
2023-04-15T10:17:47.908Z,16.40
2023-04-15T10:27:48.458Z,16.70
2023-04-15T10:37:46.920Z,17.10
2023-04-15T10:47:46.086Z,17.10
2023-04-15T10:57:45.178Z,17.10
2023-04-15T11:07:43.052Z,17.30
2023-04-15T11:17:42.003Z,19.00
2023-04-15T11:27:41.119Z,18.60
2023-04-15T11:37:39.959Z,17.00
2023-04-15T11:47:39.155Z,16.30
2023-04-15T11:57:38.177Z,17.00
2023-04-15T12:07:37.040Z,15.90
2023-04-15T12:17:52.185Z,15.10
2023-04-15T12:27:37.665Z,14.80
2023-04-15T12:37:37.212Z,14.30
2023-04-15T12:47:36.315Z,13.80
2023-04-15T12:57:35.105Z,13.20
2023-04-15T13:07:34.185Z,13.20
2023-04-15T13:17:33.246Z,13.10
2023-04-15T13:27:32.131Z,13.00
2023-04-15T13:37:31.105Z,13.20
2023-04-15T13:47:30.174Z,13.60
2023-04-15T13:57:29.078Z,14.30
2023-04-15T14:07:28.073Z,14.80
2023-04-15T14:17:27.327Z,15.30
2023-04-15T14:27:26.828Z,15.00
2023-04-15T14:37:26.030Z,14.70
2023-04-15T14:47:25.051Z,15.20
2023-04-15T14:57:24.180Z,14.70
2023-04-15T15:07:23.119Z,13.90
2023-04-15T15:17:22.279Z,13.50
2023-04-15T15:27:21.245Z,13.30
2023-04-15T15:37:20.302Z,13.20
2023-04-15T15:47:19.209Z,12.60
2023-04-15T15:57:18.157Z,12.00
2023-04-15T16:07:17.712Z,11.90
2023-04-15T16:17:17.272Z,11.90
2023-04-15T16:27:16.829Z,11.70
2023-04-15T16:37:16.395Z,11.50
2023-04-15T16:47:15.230Z,11.50
2023-04-15T16:57:14.277Z,11.50
2023-04-15T17:07:13.247Z,11.30
2023-04-15T17:17:12.453Z,11.20
2023-04-15T17:27:11.489Z,11.10
2023-04-15T17:37:10.571Z,10.90
2023-04-15T17:47:09.240Z,10.90
2023-04-15T17:57:08.467Z,10.90
2023-04-15T18:07:07.519Z,10.80
2023-04-15T18:17:06.482Z,10.70
2023-04-15T18:27:05.342Z,10.40
2023-04-15T18:37:04.931Z,10.20
2023-04-15T18:47:04.250Z,9.80
2023-04-15T18:57:03.677Z,9.80
2023-04-15T19:07:02.178Z,9.80
2023-04-15T19:17:01.427Z,9.60
2023-04-15T19:27:01.127Z,9.50
2023-04-15T19:37:00.553Z,9.50
2023-04-15T19:46:59.211Z,9.40
2023-04-15T19:56:58.379Z,9.40
2023-04-15T20:06:57.509Z,9.40
2023-04-15T20:16:56.540Z,9.40
2023-04-15T20:26:57.123Z,9.30
2023-04-15T20:36:56.492Z,9.30
2023-04-15T20:46:55.817Z,9.30
2023-04-15T20:56:54.492Z,9.40
2023-04-15T21:06:53.567Z,9.20
2023-04-15T21:16:52.357Z,9.20
2023-04-15T21:26:51.329Z,9.20
2023-04-15T21:36:50.466Z,9.20
2023-04-15T21:46:49.642Z,9.30
2023-04-15T21:56:49.534Z,9.30
2023-04-15T22:06:48.435Z,9.30
2023-04-15T22:16:47.381Z,9.30
2023-04-15T22:26:46.311Z,9.40
2023-04-15T22:36:45.672Z,9.30
2023-04-15T22:46:47.473Z,9.40
2023-04-15T22:56:46.576Z,9.50
2023-04-15T23:06:45.277Z,9.50
2023-04-15T23:16:45.294Z,9.50
2023-04-15T23:26:44.404Z,9.50
2023-04-15T23:36:43.527Z,9.50
2023-04-15T23:46:42.593Z,9.50
2023-04-15T23:56:41.618Z,9.60
